Terminal Aerodrome Forecast
Issued by NWS

Home | Current Version | Previous Version | Text Only | Print | Product List | Glossary On
Versions: 1 2 3 4 5 6 7 8 9 10 11 12 13 14 15 16 17 18 19 20 21 22
000
FTUS45 KFGZ 021700 RRA
TAFPRC
TAF
KPRC 021742Z 0218/0318 19011G14KT 4SM -SNRA BR SCT010 SCT025 OVC040
      TEMPO 0218/0221 1 1/2SM -SN BR OVC005
     FM022100 24015G22KT 6SM -SHRA BKN015
     FM030100 21007KT P6SM BKN020
      TEMPO 0301/0305 6SM -SHRASN BKN015=

USA.gov is the U.S. government's official web portal to all federal, state and local government web resources and services.